LiveATC.Net - Listen to live air traffic control over the Internet!


ICAO: KBJI  IATA: BJI   Airport: Bemidji Regional Airport
City: Bemidji   State/Province: Minnesota
Country: United States   Continent: North America
KBJI METAR Weather: KBJI 281715Z AUTO 13010KT 10SM -SN CLR M01/M03 A2954 RMK AO2 T10131026
KBJI ADS-B Flight Tracking (ADSBExchange)
KBJI Flight Activity (FlightAware)
KBJI Airport Info   (iFlightPlanner)
KBJI VFR Sectional Chart   (iFlightPlanner) 
KBJI IFR Low Altitude Chart   (iFlightPlanner) 
KBJI IFR High Altitude Chart   (iFlightPlanner) 

KBJI CTAF/ZMP
Feed Status: UP   Listeners: 3
Listen in your browser - HTML5 player (in browser, HTML5)
Click here to listen with your own player (launches your MP3 player)
Archive Access: KBJI CTAF/ZMP
FacilityFrequency
Bemidji CTAF122.800
Minneapolis Center (Sector 25 Low/High)134.750

ICAO: KDLH  IATA: DLH   Airport: Duluth International Airport
City: Duluth   State/Province: Minnesota
Country: United States   Continent: North America
KDLH METAR Weather: KDLH 281655Z 13008KT 10SM FEW085 M01/M06 A2968 RMK AO2 SLP075 T10111056
KDLH ADS-B Flight Tracking (ADSBExchange)
KDLH Flight Activity (FlightAware)
KDLH Airport Info   (iFlightPlanner)
KDLH VFR Sectional Chart   (iFlightPlanner) 
KDLH IFR Low Altitude Chart   (iFlightPlanner) 
KDLH IFR High Altitude Chart   (iFlightPlanner) 

ZMP Sector 25/DLH ANG
Feed Status: UP   Listeners: 2
Listen in your browser - HTML5 player (in browser, HTML5)
Click here to listen with your own player (launches your MP3 player)
Archive Access: ZMP Sector 25/DLH ANG
FacilityFrequency
ANG Command Post139.900
Minneapolis Center Sector 25 (Low/High)127.900
Minneapolis Center Sector 25 (Low/High)134.550
Minneapolis Center Sector 25 (Low/High)281.450
Minneapolis Center Sector 25 (Low/High)290.500
PTD/ANG Command Post 288.900

ICAO: KEAR  IATA: EAR   Airport: Kearney Regional Airport
City: Kearney   State/Province: Nebraska
Country: United States   Continent: North America
KEAR METAR Weather: KEAR 281656Z AUTO 21011KT 10SM CLR 06/M02 A2968 RMK AO2 SLP064 T00611022
KEAR ADS-B Flight Tracking (ADSBExchange)
KEAR Flight Activity (FlightAware)
KEAR Webcam:  (Airport Webcams) 
KEAR Airport Info   (iFlightPlanner)
KEAR VFR Sectional Chart   (iFlightPlanner) 
KEAR IFR Low Altitude Chart   (iFlightPlanner) 
KEAR IFR High Altitude Chart   (iFlightPlanner) 

ZDV/ZMP Kearney NE
Feed Status: UP   Listeners: 3
Listen in your browser - HTML5 player (in browser, HTML5)
Click here to listen with your own player (launches your MP3 player)
Archive Access: ZDV/ZMP Kearney NE
FacilityFrequency
Denver Center (Sector 19 North Platte Low)132.700
Minneapolis Center (Sector 26 Low)119.400

ICAO: KFSD  IATA: FSD   Airport: Joe Foss Field Airport
City: Sioux Falls   State/Province: South Dakota
Country: United States   Continent: North America
KFSD METAR Weather: KFSD 281656Z 22007G16KT 10SM SCT250 05/M04 A2958 RMK AO2 SLP028 T00501039
KFSD ADS-B Flight Tracking (ADSBExchange)
KFSD Flight Activity (FlightAware)
KFSD Webcam:  
KFSD Airport Info   (iFlightPlanner)
KFSD VFR Sectional Chart   (iFlightPlanner) 
KFSD IFR Low Altitude Chart   (iFlightPlanner) 
KFSD IFR High Altitude Chart   (iFlightPlanner) 

KFSD Twr/App/Dep/ZMP
Feed Status: UP   Listeners: 2
Listen in your browser - HTML5 player (in browser, HTML5)
Click here to listen with your own player (launches your MP3 player)
Archive Access: KFSD Twr/App/Dep/ZMP
FacilityFrequency
Minneapolis Center (Sector 33 PIR Low)132.050
Sioux Falls Approach/Departure125.800
Sioux Falls Tower118.300

ICAO: KOFF  IATA: OFF   Airport: Offutt Air Force Base
City: Omaha   State/Province: Nebraska
Country: United States   Continent: North America
KOFF METAR Weather: KOFF 281655Z AUTO 18012G16KT 10SM CLR 06/M04 A2977 RMK AO2 SLP094 T00641038 PWINO PNO FZRANO TSNO CHINO RWY31 $
KOFF ADS-B Flight Tracking (ADSBExchange)
KOFF Flight Activity (FlightAware)
KOFF Webcam:  
KOFF Airport Info   (iFlightPlanner)
KOFF VFR Sectional Chart   (iFlightPlanner) 
KOFF IFR Low Altitude Chart   (iFlightPlanner) 
KOFF IFR High Altitude Chart   (iFlightPlanner) 

KOFF Gnd/Twr/App/ZMP
Feed Status: UP   Listeners: 1
Listen in your browser - HTML5 player (in browser, HTML5)
Click here to listen with your own player (launches your MP3 player)
Archive Access: KOFF Gnd/Twr/App/ZMP
FacilityFrequency
Emergency/Guard121.500
Minneapolis Center (Sector 27 Low)119.600
Offutt AFB Ground121.700
Offutt AFB Tower123.700
Omaha Approach/Departure (East)124.500
Omaha Approach/Departure (West)120.100

ICAO: KOTM  IATA: OTM   Airport: Ottumwa Regional Airport
City: Ottumwa   State/Province: Iowa
Country: United States   Continent: North America
KOTM METAR Weather: KOTM 281653Z AUTO 19011KT 10SM CLR 05/00 A2986 RMK AO2 SLP117 T00500000
KOTM ADS-B Flight Tracking (ADSBExchange)
KOTM Flight Activity (FlightAware)
KOTM Webcam:  
KOTM Airport Info   (iFlightPlanner)
KOTM VFR Sectional Chart   (iFlightPlanner) 
KOTM IFR Low Altitude Chart   (iFlightPlanner) 
KOTM IFR High Altitude Chart   (iFlightPlanner) 

KOTM Del/Twr/App/Center
Feed Status: UP   Listeners: 2
Listen in your browser - HTML5 player (in browser, HTML5)
Click here to listen with your own player (launches your MP3 player)
Archive Access: KOTM Del/Twr/App/Center
FacilityFrequency
Cedar Rapids Approach119.700
Cedar Rapids Approach134.050
Cedar Rapids Clearance Delivery125.450
Cedar Rapids Tower118.700
Cedar Rapids UNICOM122.950
Chicago Center118.150
Chicago Center (Sector 55 Burlington Low)135.600
Chicago Center (Sector 56 Ottumwa Low SFC to FL230)132.800
Chicago Center (Sector 74 FARMM Low)133.350
Chicago Center (Sector 91 Hanna City Super Hi)134.325
Des Moines Approach118.600
Des Moines Approach123.900
Des Moines Approach135.200
Des Moines Tower118.300
Emergency/Guard121.500
Kansas City Center132.600
KIRK Kirksville, MO CTAF122.800
Minneapolis Center118.825
Minneapolis Center (Sector 27 Low)125.650
Minneapolis Center (Sector 30 High)135.775
Ottumwa CTAF/UNICOM123.000
Sponsored by: Kevin Jarvis

ICAO: KSUX  IATA: SUX   Airport: Sioux Gateway Airport/Col. Bud Day Field
City: Sioux City   State/Province: Iowa
Country: United States   Continent: North America
KSUX METAR Weather: KSUX 281652Z 21013KT 10SM CLR 06/M03 A2967 RMK AO2 SLP059 T00561028
KSUX ADS-B Flight Tracking (ADSBExchange)
KSUX Flight Activity (FlightAware)
KSUX Webcam:  
KSUX Airport Info   (iFlightPlanner)
KSUX VFR Sectional Chart   (iFlightPlanner) 
KSUX IFR Low Altitude Chart   (iFlightPlanner) 
KSUX IFR High Altitude Chart   (iFlightPlanner) 

KSUX Twr/App/ZMP
Feed Status: UP   Listeners: 2
Listen in your browser - HTML5 player (in browser, HTML5)
Click here to listen with your own player (launches your MP3 player)
Archive Access: KSUX Twr/App/ZMP
FacilityFrequency
Emergency/Guard121.500
Sioux City Approach/Departure124.600
Sioux City Tower118.700
ZMP Minneapolis Center (Low)125.025

ICAO: KTVC  IATA: TVC   Airport: Cherry Capital Airport
City: Traverse City   State/Province: Michigan
Country: United States   Continent: North America
KTVC METAR Weather: KTVC 281653Z 15004KT 10SM OVC043 04/M04 A2993 RMK AO2 SLP139 T00441044
KTVC ADS-B Flight Tracking (ADSBExchange)
KTVC Flight Activity (FlightAware)
KTVC Webcam:  
KTVC Airport Info   (iFlightPlanner)
KTVC VFR Sectional Chart   (iFlightPlanner) 
KTVC IFR Low Altitude Chart   (iFlightPlanner) 
KTVC IFR High Altitude Chart   (iFlightPlanner) 

KTVC Ground/Tower
Feed Status: UP   Listeners: 2
Listen in your browser - HTML5 player (in browser, HTML5)
Click here to listen with your own player (launches your MP3 player)
Archive Access: KTVC Ground/Tower
FacilityFrequency
Traverse City Ground121.800
Traverse City Tower124.200
Sponsored by:

ZMP Sector 02 (TVC)
Feed Status: DOWN
Last heard on: 2022-09-18 14:58:06 (71 days 3 hours 0 minutes ago)
Archive Access: ZMP Sector 02 (TVC)
FacilityFrequency
Minneapolis Center (Sector 02 Low)132.900

NOTICE

Unauthorized use prohibited. See LiveATC.net Terms of Service


Airport/ARTCC Code
Frequency Search
(e.g., 124.400, 128.75)
Site-wide search
 


Browse Feeds
Top 50 Feeds
HF Oceanic Feeds
Coverage Map
Bad Weather Areas

LiveATC FAQ
Offer LiveATC feed
Contact LiveATC.net
Press Inquiries

LiveATC on iPhone
LiveATC on Android

LiveATC Mobile
(Mobile browser)

ATC Audio Archives
Interesting Recordings

LiveATC Forums


Home Page
About LiveATC.net


Terms of Use
Privacy Policy

AIRMETs/SIGMETs

FAA Airport Status
NAS Status
Arrival Demand


Server Software By:
Icecast.org
Liquidsoap